Old Westfield, New York
Current Conditions -  °F | °C
As of 9:56 AM on Friday 19 Dec 2014 (Local Time) from KISP Reporting Station
Overcast Overcast  
Wind Chill: 29°   Ceiling: 3200
Heat Index: 37°   Visibility: 10mi
Dew Point: 24°   Wind: 12mph
Humidity: 59%   Direction: 320°NW
Pressure: 30.01"   Gusts: NA
Location:  40.87°N, 73.0428°W
Report Text: KISP 191456Z 32010KT 10SM FEW025 OVC032 03/M04 A3001 RMK AO2 SLP163 T00281044 51015
Loading
Personal Weather Stations






























Interactive Weather Map New forecast layout! Learn more

10-Day Weather Forecast

Advertisements
Track Severe Weather on mobile